createdAt,value
2023-03-21T00:02:20.194Z,34.08
2023-03-21T00:05:15.295Z,34.42
2023-03-21T00:08:02.660Z,36.35
2023-03-21T00:10:56.285Z,43.20
2023-03-21T00:13:44.488Z,37.85
2023-03-21T00:16:35.481Z,37.08
2023-03-21T00:19:22.251Z,35.00
2023-03-21T00:22:09.137Z,34.90
2023-03-21T00:24:55.484Z,34.65
2023-03-21T00:28:00.966Z,32.42
2023-03-21T00:30:46.558Z,33.40
2023-03-21T00:33:32.338Z,33.85
2023-03-21T00:36:18.247Z,34.03
2023-03-21T00:39:06.177Z,34.60
2023-03-21T00:41:52.284Z,34.38
2023-03-21T00:44:37.496Z,37.42
2023-03-21T00:47:25.718Z,36.92
2023-03-21T00:50:12.034Z,36.28
2023-03-21T00:52:57.340Z,35.45
2023-03-21T00:55:43.266Z,36.53
2023-03-21T00:58:28.777Z,35.88
2023-03-21T01:01:14.087Z,32.70
2023-03-21T01:04:05.411Z,29.92
2023-03-21T01:06:51.029Z,27.95
2023-03-21T01:09:36.453Z,26.10
2023-03-21T01:12:21.791Z,23.65
2023-03-21T01:15:07.825Z,23.83
2023-03-21T01:17:53.119Z,23.88
2023-03-21T01:20:41.652Z,23.67
2023-03-21T01:23:29.268Z,24.80
2023-03-21T01:26:15.473Z,24.80
2023-03-21T01:29:02.626Z,25.80
2023-03-21T01:31:48.270Z,25.52
2023-03-21T01:34:33.597Z,25.52
2023-03-21T01:37:20.003Z,26.42
2023-03-21T01:40:12.780Z,24.70
2023-03-21T01:42:59.850Z,22.80
2023-03-21T01:46:10.343Z,21.63
2023-03-21T01:49:24.906Z,20.10
2023-03-21T01:52:33.343Z,20.38
2023-03-21T01:55:22.444Z,21.05
2023-03-21T01:58:18.650Z,22.05
2023-03-21T02:01:38.398Z,23.23
2023-03-21T02:04:28.215Z,20.45
2023-03-21T02:07:36.295Z,22.05
2023-03-21T02:10:28.157Z,21.85
2023-03-21T02:13:18.798Z,19.15
2023-03-21T02:16:15.456Z,19.55
2023-03-21T02:19:11.540Z,19.88
2023-03-21T02:22:20.688Z,19.55
2023-03-21T02:25:26.155Z,21.63
2023-03-21T02:28:27.395Z,21.33
2023-03-21T02:31:36.389Z,20.27
2023-03-21T02:34:40.604Z,20.85
2023-03-21T02:37:37.667Z,21.27
2023-03-21T02:40:42.646Z,22.42
2023-03-21T02:43:31.831Z,21.65
2023-03-21T02:46:33.513Z,21.73
2023-03-21T02:49:52.390Z,22.60
2023-03-21T02:52:39.961Z,24.65
2023-03-21T02:55:32.625Z,26.15
2023-03-21T02:58:25.562Z,25.75
2023-03-21T03:01:15.399Z,26.38
2023-03-21T03:04:17.111Z,24.20
2023-03-21T03:07:11.804Z,22.83
2023-03-21T03:10:21.820Z,23.75
2023-03-21T03:13:35.591Z,26.73
2023-03-21T03:16:36.802Z,25.48
2023-03-21T03:19:31.203Z,22.35
2023-03-21T03:22:36.080Z,23.50
2023-03-21T03:25:43.353Z,22.20
2023-03-21T03:28:38.534Z,21.85
2023-03-21T03:31:38.061Z,20.92
2023-03-21T03:34:29.700Z,21.58
2023-03-21T03:37:20.413Z,22.97
2023-03-21T03:40:12.663Z,21.67
2023-03-21T03:43:26.482Z,23.23
2023-03-21T03:46:18.982Z,22.58
2023-03-21T03:49:10.807Z,23.08
2023-03-21T03:52:01.418Z,23.00
2023-03-21T03:54:52.901Z,24.25
2023-03-21T03:57:40.898Z,22.63
2023-03-21T04:00:27.582Z,22.73
2023-03-21T04:03:13.570Z,23.70
2023-03-21T04:05:59.417Z,23.90
2023-03-21T04:08:44.746Z,23.30
2023-03-21T04:11:30.463Z,21.88
2023-03-21T04:14:16.548Z,33.92
2023-03-21T04:17:03.541Z,30.70
2023-03-21T04:19:55.528Z,23.10
2023-03-21T04:22:43.364Z,31.45
2023-03-21T04:25:33.847Z,29.77
2023-03-21T04:28:22.126Z,22.15
2023-03-21T04:31:28.692Z,21.63
2023-03-21T04:34:32.935Z,23.10
2023-03-21T04:37:23.520Z,24.00
2023-03-21T04:40:11.580Z,23.38
2023-03-21T04:42:57.230Z,22.52
2023-03-21T04:45:42.740Z,23.15
2023-03-21T04:48:28.769Z,23.75
2023-03-21T04:51:16.768Z,22.70
2023-03-21T04:54:02.604Z,23.02
2023-03-21T04:56:48.311Z,23.48
2023-03-21T04:59:34.853Z,22.80
2023-03-21T05:02:21.274Z,21.58
2023-03-21T05:05:11.265Z,22.25
2023-03-21T05:07:56.864Z,22.38
2023-03-21T05:10:42.399Z,21.42
2023-03-21T05:13:28.691Z,22.73
2023-03-21T05:16:13.967Z,20.83
2023-03-21T05:19:04.990Z,21.05
2023-03-21T05:21:55.326Z,20.77
2023-03-21T05:24:50.140Z,21.95
2023-03-21T05:28:06.835Z,21.42
2023-03-21T05:30:52.337Z,20.67
2023-03-21T05:33:37.979Z,23.90
2023-03-21T05:36:23.312Z,25.50
2023-03-21T05:39:09.186Z,28.42
2023-03-21T05:41:59.073Z,32.30
2023-03-21T05:44:46.147Z,24.10
2023-03-21T05:47:32.644Z,23.25
2023-03-21T05:50:19.042Z,22.55
2023-03-21T05:53:14.061Z,20.50
2023-03-21T05:56:00.443Z,22.55
2023-03-21T05:58:58.962Z,23.00
2023-03-21T06:01:44.430Z,25.58
2023-03-21T06:04:33.604Z,25.15
2023-03-21T06:07:19.228Z,26.92
2023-03-21T06:10:05.716Z,25.67
2023-03-21T06:12:51.965Z,26.02
2023-03-21T06:15:47.641Z,28.00
2023-03-21T06:18:37.464Z,28.60
2023-03-21T06:21:50.707Z,28.27
2023-03-21T06:24:36.270Z,30.15
2023-03-21T06:27:22.774Z,29.33
2023-03-21T06:30:12.232Z,27.65
2023-03-21T06:33:07.049Z,29.95
2023-03-21T06:35:54.103Z,28.65
2023-03-21T06:38:40.500Z,29.88
2023-03-21T06:41:27.122Z,26.95
2023-03-21T06:44:22.051Z,25.05
2023-03-21T06:47:16.301Z,24.73
2023-03-21T06:50:06.760Z,24.48
2023-03-21T06:52:59.682Z,25.33
2023-03-21T06:55:53.091Z,24.00
2023-03-21T06:58:39.269Z,24.08
2023-03-21T07:01:30.917Z,25.55
2023-03-21T07:04:23.835Z,26.45
2023-03-21T07:07:09.801Z,24.65
2023-03-21T07:09:55.610Z,22.52
2023-03-21T07:12:41.565Z,24.52
2023-03-21T07:15:50.511Z,23.42
2023-03-21T07:18:36.073Z,23.77
2023-03-21T07:21:21.683Z,24.70
2023-03-21T07:24:07.196Z,23.83
2023-03-21T07:26:54.079Z,23.88
2023-03-21T07:29:39.845Z,24.88
2023-03-21T07:32:30.035Z,26.67
2023-03-21T07:35:17.685Z,22.40
2023-03-21T07:38:04.802Z,23.05
2023-03-21T07:40:50.755Z,21.90
2023-03-21T07:43:39.001Z,23.73
2023-03-21T07:46:29.082Z,23.17
2023-03-21T07:49:15.445Z,22.88
2023-03-21T07:52:04.620Z,22.92
2023-03-21T07:54:51.284Z,23.70
2023-03-21T07:57:41.382Z,24.88
2023-03-21T08:00:27.523Z,22.50
2023-03-21T08:03:13.318Z,22.48
2023-03-21T08:06:02.040Z,20.40
2023-03-21T08:08:51.975Z,23.15
2023-03-21T08:11:37.806Z,21.42
2023-03-21T08:14:23.473Z,24.02
2023-03-21T08:17:09.629Z,20.73
2023-03-21T08:19:54.883Z,21.65
2023-03-21T08:22:40.650Z,23.08
2023-03-21T08:25:26.260Z,21.85
2023-03-21T08:28:11.912Z,22.65
2023-03-21T08:30:57.433Z,22.38
2023-03-21T08:33:42.999Z,23.52
2023-03-21T08:36:28.412Z,24.45
2023-03-21T08:39:13.962Z,26.42
2023-03-21T08:41:59.768Z,22.25
2023-03-21T08:44:45.950Z,26.17
2023-03-21T08:47:33.490Z,26.30
2023-03-21T08:50:24.796Z,24.83
2023-03-21T08:53:10.564Z,23.38
2023-03-21T08:55:55.968Z,25.90
2023-03-21T08:58:41.500Z,22.98
2023-03-21T09:01:27.364Z,50.20
2023-03-21T09:04:13.155Z,37.25
2023-03-21T09:07:01.500Z,28.00
2023-03-21T09:09:53.407Z,24.98
2023-03-21T09:12:43.852Z,24.35
2023-03-21T09:15:29.704Z,21.73
2023-03-21T09:18:16.335Z,18.65
2023-03-21T09:21:02.210Z,18.33
2023-03-21T09:23:48.763Z,18.75
2023-03-21T09:26:34.445Z,18.60
2023-03-21T09:29:21.458Z,19.80
2023-03-21T09:32:08.386Z,20.88
2023-03-21T09:34:55.664Z,15.68
2023-03-21T09:37:42.489Z,17.88
2023-03-21T09:40:49.767Z,17.92
2023-03-21T09:44:06.836Z,20.33
2023-03-21T09:46:58.463Z,15.85
2023-03-21T09:49:51.887Z,15.68
2023-03-21T09:53:11.299Z,14.95
2023-03-21T09:55:57.370Z,16.42
2023-03-21T09:58:54.754Z,16.10
2023-03-21T10:01:45.022Z,15.52
2023-03-21T10:04:31.983Z,16.63
2023-03-21T10:07:19.982Z,16.90
2023-03-21T10:10:06.346Z,17.25
2023-03-21T10:12:53.919Z,19.55
2023-03-21T10:15:39.429Z,19.38
2023-03-21T10:18:29.193Z,20.08
2023-03-21T10:21:56.462Z,20.25
2023-03-21T10:24:34.800Z,20.38
2023-03-21T10:27:21.332Z,19.75
2023-03-21T10:30:12.524Z,19.10
2023-03-21T10:33:05.159Z,18.77
2023-03-21T10:35:55.606Z,19.55
2023-03-21T10:38:48.608Z,17.65
2023-03-21T10:41:35.011Z,17.60
2023-03-21T10:44:21.031Z,16.15
2023-03-21T10:47:09.038Z,17.02
2023-03-21T10:50:11.104Z,15.95
2023-03-21T10:53:00.754Z,16.02
2023-03-21T10:55:51.404Z,16.27
2023-03-21T10:58:44.874Z,16.60
2023-03-21T11:01:40.693Z,17.50
2023-03-21T11:04:29.197Z,15.63
2023-03-21T11:07:16.077Z,15.95
2023-03-21T11:10:14.602Z,16.13
2023-03-21T11:13:08.036Z,15.00
2023-03-21T11:15:56.716Z,17.00
2023-03-21T11:18:44.899Z,17.20
2023-03-21T11:21:37.168Z,16.02
2023-03-21T11:24:22.553Z,15.82
2023-03-21T11:27:09.072Z,14.77
2023-03-21T11:29:55.225Z,14.30
2023-03-21T11:32:42.744Z,14.73
2023-03-21T11:35:34.936Z,14.63
2023-03-21T11:38:27.412Z,14.65
2023-03-21T11:41:32.729Z,15.13
2023-03-21T11:44:30.886Z,18.15
2023-03-21T11:47:16.529Z,17.67
2023-03-21T11:50:05.212Z,16.42
2023-03-21T11:52:56.348Z,16.73
2023-03-21T11:55:56.962Z,16.33
2023-03-21T11:58:51.057Z,16.08
2023-03-21T12:01:54.591Z,15.38
2023-03-21T12:04:51.052Z,15.60
2023-03-21T12:07:57.124Z,14.57
2023-03-21T12:11:05.435Z,14.82
2023-03-21T12:14:00.409Z,15.40
2023-03-21T12:17:03.971Z,16.42
2023-03-21T12:20:11.055Z,14.30
2023-03-21T12:23:03.675Z,15.57
2023-03-21T12:26:00.898Z,15.88
2023-03-21T12:29:08.541Z,15.02
2023-03-21T12:32:15.892Z,14.90
2023-03-21T12:35:25.697Z,14.50
2023-03-21T12:38:37.496Z,15.32
2023-03-21T12:41:52.881Z,13.95
2023-03-21T12:44:44.490Z,14.50
2023-03-21T12:47:33.869Z,15.23
2023-03-21T12:50:26.380Z,14.30
2023-03-21T12:53:41.734Z,14.75
2023-03-21T12:56:52.437Z,15.20
2023-03-21T12:59:56.088Z,15.15
2023-03-21T13:02:52.042Z,15.10
2023-03-21T13:05:54.193Z,12.45
2023-03-21T13:09:05.947Z,11.95
2023-03-21T13:11:57.259Z,10.82
2023-03-21T13:14:56.885Z,10.32
2023-03-21T13:17:47.675Z,11.40
2023-03-21T13:20:45.966Z,11.90
2023-03-21T13:23:37.326Z,10.35
2023-03-21T13:26:40.101Z,10.30
2023-03-21T13:29:47.008Z,12.48
2023-03-21T13:32:34.187Z,9.25
2023-03-21T13:35:27.713Z,8.90
2023-03-21T13:38:21.205Z,7.35
2023-03-21T13:41:15.625Z,7.47
2023-03-21T13:44:04.241Z,6.97
2023-03-21T13:47:05.045Z,6.93
2023-03-21T13:50:21.512Z,6.80
2023-03-21T13:53:16.072Z,6.80
2023-03-21T13:56:16.945Z,6.88
2023-03-21T13:59:03.911Z,6.47
2023-03-21T14:02:26.749Z,7.50
2023-03-21T14:05:22.492Z,7.45
2023-03-21T14:08:24.474Z,7.30
2023-03-21T14:11:20.263Z,7.95
2023-03-21T14:14:06.157Z,9.88
2023-03-21T14:16:55.478Z,6.88
2023-03-21T14:19:41.106Z,6.43
2023-03-21T14:22:27.050Z,7.15
2023-03-21T14:25:15.444Z,7.88
2023-03-21T14:28:03.913Z,7.28
2023-03-21T14:30:55.808Z,7.22
2023-03-21T14:33:46.637Z,7.97
2023-03-21T14:36:38.897Z,7.22
2023-03-21T14:39:33.547Z,7.20
2023-03-21T14:42:20.893Z,7.03
2023-03-21T14:45:21.071Z,7.45
2023-03-21T14:48:13.100Z,6.97
2023-03-21T14:51:08.222Z,7.50
2023-03-21T14:53:53.702Z,8.02
2023-03-21T14:56:39.651Z,7.57
2023-03-21T14:59:32.445Z,8.20
2023-03-21T15:02:33.363Z,8.02
2023-03-21T15:05:39.660Z,8.27
2023-03-21T15:08:28.324Z,9.15
2023-03-21T15:11:13.987Z,7.85
2023-03-21T15:14:03.334Z,9.30
2023-03-21T15:16:49.235Z,9.15
2023-03-21T15:19:38.103Z,8.30
2023-03-21T15:22:38.372Z,7.85
2023-03-21T15:25:29.903Z,8.90
2023-03-21T15:28:16.780Z,9.75
2023-03-21T15:31:04.471Z,9.27
2023-03-21T15:33:52.766Z,8.77
2023-03-21T15:36:46.631Z,8.48
2023-03-21T15:39:36.009Z,8.85
2023-03-21T15:42:34.263Z,9.93
2023-03-21T15:45:26.958Z,9.30
2023-03-21T15:48:14.397Z,9.55
2023-03-21T15:51:03.919Z,10.50
2023-03-21T15:53:54.195Z,10.35
2023-03-21T15:56:42.353Z,10.25
2023-03-21T15:59:35.071Z,10.07
2023-03-21T16:02:24.335Z,9.15
2023-03-21T16:05:31.530Z,8.70
2023-03-21T16:08:27.578Z,8.23
2023-03-21T16:11:25.529Z,9.40
2023-03-21T16:14:11.207Z,8.45
2023-03-21T16:16:59.044Z,8.55
2023-03-21T16:19:44.666Z,9.07
2023-03-21T16:22:30.420Z,10.15
2023-03-21T16:25:16.319Z,9.10
2023-03-21T16:28:02.045Z,11.02
2023-03-21T16:30:47.401Z,10.48
2023-03-21T16:33:33.170Z,11.20
2023-03-21T16:36:27.448Z,10.85
2023-03-21T16:39:17.903Z,9.82
2023-03-21T16:42:03.459Z,10.75
2023-03-21T16:44:49.375Z,11.10
2023-03-21T16:47:34.760Z,9.77
2023-03-21T16:50:26.719Z,9.73
2023-03-21T16:53:12.258Z,10.10
2023-03-21T16:56:02.613Z,9.88
2023-03-21T16:58:48.481Z,9.50
2023-03-21T17:01:38.383Z,10.43
2023-03-21T17:04:24.799Z,9.48
2023-03-21T17:07:14.467Z,9.45
2023-03-21T17:10:00.215Z,8.90
2023-03-21T17:12:46.061Z,9.88
2023-03-21T17:15:31.859Z,9.98
2023-03-21T17:18:17.618Z,8.85
2023-03-21T17:21:03.237Z,9.43
2023-03-21T17:23:50.229Z,14.48
2023-03-21T17:26:36.602Z,12.50
2023-03-21T17:29:22.085Z,11.60
2023-03-21T17:32:07.414Z,10.77
2023-03-21T17:34:53.304Z,9.48
2023-03-21T17:37:39.026Z,9.77
2023-03-21T17:40:27.641Z,9.35
2023-03-21T17:43:17.053Z,9.52
2023-03-21T17:46:02.877Z,9.73
2023-03-21T17:48:49.246Z,9.25
2023-03-21T17:51:35.276Z,9.43
2023-03-21T17:54:20.999Z,9.73
2023-03-21T17:57:11.590Z,11.38
2023-03-21T17:59:57.229Z,11.95
2023-03-21T18:02:42.648Z,12.23
2023-03-21T18:05:28.078Z,14.18
2023-03-21T18:08:13.359Z,12.73
2023-03-21T18:10:59.034Z,17.75
2023-03-21T18:13:45.467Z,24.15
2023-03-21T18:16:31.440Z,13.82
2023-03-21T18:19:17.646Z,16.98
2023-03-21T18:22:03.642Z,13.85
2023-03-21T18:24:49.064Z,11.95
2023-03-21T18:27:35.339Z,12.45
2023-03-21T18:30:41.209Z,16.15
2023-03-21T18:33:28.665Z,27.38
2023-03-21T18:36:24.494Z,18.40
2023-03-21T18:39:10.746Z,15.23
2023-03-21T18:42:00.801Z,11.48
2023-03-21T18:47:34.255Z,10.82
2023-03-21T18:50:20.516Z,10.35
2023-03-21T18:53:06.199Z,10.95
2023-03-21T18:55:52.622Z,11.13
2023-03-21T18:58:38.609Z,12.90
2023-03-21T19:01:24.236Z,25.02
2023-03-21T19:04:21.465Z,25.15
2023-03-21T19:07:11.141Z,20.20
2023-03-21T19:10:18.017Z,17.55
2023-03-21T19:13:02.915Z,33.30
2023-03-21T19:15:49.738Z,47.67
2023-03-21T19:21:41.488Z,9.75
2023-03-21T19:24:28.943Z,9.07
2023-03-21T19:27:15.028Z,15.07
2023-03-21T19:30:17.267Z,21.55
2023-03-21T19:33:02.801Z,26.40
2023-03-21T19:35:50.322Z,21.20
2023-03-21T19:38:36.093Z,13.45
2023-03-21T19:41:21.403Z,9.63
2023-03-21T19:44:06.833Z,9.88
2023-03-21T19:46:52.608Z,8.85
2023-03-21T19:52:47.222Z,17.23
2023-03-21T19:55:32.666Z,18.02
2023-03-21T19:58:22.705Z,16.38
2023-03-21T20:01:09.304Z,16.98
2023-03-21T20:03:54.802Z,15.70
2023-03-21T20:06:41.075Z,15.73
2023-03-21T20:12:34.653Z,13.10
2023-03-21T20:15:21.916Z,13.73
2023-03-21T20:18:08.835Z,11.63
2023-03-21T20:20:54.420Z,13.48
2023-03-21T20:23:39.851Z,14.02
2023-03-21T20:26:25.386Z,14.45
2023-03-21T20:30:05.382Z,31.00
2023-03-21T20:32:16.277Z,24.42
2023-03-21T20:35:13.751Z,21.73
2023-03-21T20:38:02.801Z,17.83
2023-03-21T20:40:48.196Z,18.65
2023-03-21T20:46:41.734Z,19.48
2023-03-21T20:49:29.505Z,17.15
2023-03-21T20:55:22.634Z,60.95
2023-03-21T20:58:30.216Z,51.53
2023-03-21T21:01:16.963Z,40.92
2023-03-21T21:04:02.891Z,30.27
2023-03-21T21:06:49.036Z,30.35
2023-03-21T21:09:34.833Z,32.60
2023-03-21T21:12:20.450Z,32.20
2023-03-21T21:15:08.500Z,32.38
2023-03-21T21:18:06.608Z,30.60
2023-03-21T21:20:54.257Z,31.33
2023-03-21T21:23:40.563Z,23.98
2023-03-21T21:26:26.239Z,29.35
2023-03-21T21:29:16.936Z,25.38
2023-03-21T21:32:02.582Z,30.10
2023-03-21T21:34:48.559Z,26.85
2023-03-21T21:37:34.153Z,20.33
2023-03-21T21:40:23.085Z,19.92
2023-03-21T21:43:08.662Z,21.05
2023-03-21T21:45:54.447Z,23.00
2023-03-21T21:48:41.189Z,23.95
2023-03-21T21:51:26.713Z,23.35
2023-03-21T21:54:18.001Z,23.25
2023-03-21T21:57:04.103Z,21.23
2023-03-21T21:59:54.303Z,21.27
2023-03-21T22:02:41.505Z,21.45
2023-03-21T22:05:27.846Z,21.63
2023-03-21T22:08:13.605Z,21.67
2023-03-21T22:11:03.468Z,23.00
2023-03-21T22:13:49.094Z,25.35
2023-03-21T22:16:34.798Z,15.10
2023-03-21T22:19:20.015Z,12.50
2023-03-21T22:22:05.326Z,12.38
2023-03-21T22:24:50.843Z,14.15
2023-03-21T22:27:36.619Z,11.98
2023-03-21T22:30:22.256Z,13.07
2023-03-21T22:33:09.907Z,12.20
2023-03-21T22:35:55.624Z,12.52
2023-03-21T22:38:41.942Z,14.23
2023-03-21T22:41:27.559Z,16.90
2023-03-21T22:44:14.947Z,16.88
2023-03-21T22:47:11.228Z,11.32
2023-03-21T22:49:57.000Z,10.73
2023-03-21T22:52:42.880Z,9.88
2023-03-21T22:55:28.140Z,10.25
2023-03-21T22:58:13.564Z,10.52
2023-03-21T23:01:02.575Z,10.30
2023-03-21T23:03:48.108Z,24.80
2023-03-21T23:06:33.661Z,12.50
2023-03-21T23:09:19.546Z,10.23
2023-03-21T23:12:05.387Z,9.80
2023-03-21T23:14:50.892Z,9.07
2023-03-21T23:17:36.235Z,10.15
2023-03-21T23:20:22.052Z,10.77
2023-03-21T23:23:07.605Z,11.63
2023-03-21T23:25:53.622Z,12.18
2023-03-21T23:28:39.197Z,12.80
2023-03-21T23:31:26.404Z,12.50
2023-03-21T23:34:12.552Z,11.30
2023-03-21T23:36:58.574Z,11.43
2023-03-21T23:39:45.365Z,12.45
2023-03-21T23:42:30.755Z,11.77
2023-03-21T23:45:16.256Z,11.23
2023-03-21T23:48:01.586Z,10.27
2023-03-21T23:50:47.253Z,10.40
2023-03-21T23:53:32.491Z,11.25
2023-03-21T23:56:20.567Z,10.02
2023-03-21T23:59:06.309Z,9.88
